Main page
METAR-TAF:

METAR-TAF

Airports :

Bric della Croce

Turin, Italy

latitude: 45-02N, longitude: 007-44E, elevation: 709 m

Current weather observation

The report was made 1 hour and 5 minutes ago, at 22:55 UTC
Calm wind
Temperature 3°C
Humidity 100%
Pressure 1005 hPa
Visibility: 0800 m
light rain, fog

METAR: LIMK 172255Z 00000KT 0800 -RA FG VV/// 03/03 Q1005 RMK VAL INVIS VIS MIN 0800

Time: 01:00 (00:00 UTC)


TAF: missing

Weather observations and forecasts of more than 4000 airports (METAR and TAF reports).

The available stations are represented by yellow and red dots on the map.

Hover mouse over dot to see the name of the station.

Then click to see weather observations and forecasts.

To change the map : click on the green buttons with a black cross to zoom in, on the green button with a dash to zoom out, or on the green arrows for adjacent maps.


METAR-TAF: